Time;durP1;ratioP1;P1;durP2;ratioP2;P2;SDS_P1;SDS_P2;PMS_P1;PMS_P2;Temp;Humidity;BMP_temperature;BMP_pressure;BME280_temperature;BME280_humidity;BME280_pressure;Samples;Min_cycle;Max_cycle;Signal;HPM_P1;HPM_P2
2021/04/22 00:01:26;;;;;;;11.20;6.90;;;10.90;99.90;;;;;;4961975;28;20130;-88
2021/04/22 00:03:52;;;;;;;13.07;7.43;;;10.90;99.90;;;;;;4973545;28;20029;-88
2021/04/22 00:06:18;;;;;;;12.68;6.75;;;11.10;99.90;;;;;;4959954;28;20110;-88
2021/04/22 00:08:43;;;;;;;10.13;6.60;;;10.90;99.90;;;;;;4938158;29;20031;-87
2021/04/22 00:11:09;;;;;;;10.93;7.18;;;10.80;99.90;;;;;;4938023;29;20030;-87
2021/04/22 00:13:35;;;;;;;11.60;7.18;;;10.70;99.90;;;;;;4938490;29;20038;-87
2021/04/22 00:16:01;;;;;;;12.18;6.35;;;10.80;99.90;;;;;;4950541;28;20026;-88
2021/04/22 00:18:28;;;;;;;10.75;6.82;;;10.70;99.90;;;;;;4956970;28;20026;-88
2021/04/22 00:20:54;;;;;;;11.13;7.20;;;10.70;99.90;;;;;;4957161;28;20050;-88
2021/04/22 00:23:20;;;;;;;12.07;7.65;;;10.80;99.90;;;;;;4974967;28;20392;-88
2021/04/22 00:25:46;;;;;;;13.90;7.13;;;10.80;99.90;;;;;;4956665;28;20504;-88
2021/04/22 00:28:13;;;;;;;11.65;6.95;;;11.00;99.90;;;;;;4949621;28;20023;-88
2021/04/22 00:30:41;;;;;;;13.05;7.05;;;10.80;99.90;;;;;;4957611;28;20034;-88
2021/04/22 00:33:08;;;;;;;11.38;7.20;;;11.10;99.90;;;;;;4957536;28;20023;-88
2021/04/22 00:35:34;;;;;;;12.13;7.20;;;10.80;99.90;;;;;;4974222;28;20062;-88
2021/04/22 00:38:01;;;;;;;12.25;7.25;;;10.80;99.90;;;;;;4956806;28;20027;-87
2021/04/22 00:40:27;;;;;;;11.32;7.28;;;10.90;99.90;;;;;;4957030;28;20110;-88
2021/04/22 00:42:53;;;;;;;13.15;7.75;;;10.90;99.90;;;;;;4962465;28;20027;-88
2021/04/22 00:45:20;;;;;;;13.00;7.38;;;10.80;99.90;;;;;;4938084;29;20027;-87
2021/04/22 00:47:47;;;;;;;10.85;7.63;;;10.80;99.90;;;;;;4946544;28;20055;-87
2021/04/22 00:50:19;;;;;;;13.98;7.55;;;10.90;99.90;;;;;;4954293;28;20038;-88
2021/04/22 00:52:45;;;;;;;11.95;7.47;;;10.90;99.90;;;;;;4956642;28;20059;-88
2021/04/22 00:55:12;;;;;;;13.10;6.95;;;11.20;99.90;;;;;;4970190;28;20034;-88
2021/04/22 00:57:37;;;;;;;14.55;7.20;;;10.90;99.90;;;;;;4976768;28;20035;-88
2021/04/22 01:00:07;;;;;;;11.20;7.15;;;11.00;99.90;;;;;;4974415;28;20110;-87
2021/04/22 01:02:34;;;;;;;13.55;7.90;;;11.00;99.90;;;;;;4970717;28;20034;-88
2021/04/22 01:04:59;;;;;;;12.15;7.00;;;11.00;99.90;;;;;;4952642;29;20020;-88
2021/04/22 01:07:25;;;;;;;12.05;7.47;;;11.00;99.90;;;;;;4954557;28;20096;-88
2021/04/22 01:09:51;;;;;;;11.45;7.50;;;11.40;99.90;;;;;;4958639;28;20030;-88
2021/04/22 01:12:17;;;;;;;15.38;8.80;;;11.00;99.90;;;;;;4993919;28;20550;-88
2021/04/22 01:14:42;;;;;;;12.57;8.20;;;11.10;99.90;;;;;;4976007;28;20066;-87
2021/04/22 01:17:09;;;;;;;12.60;8.75;;;11.10;99.90;;;;;;4976645;28;20041;-88
2021/04/22 01:19:35;;;;;;;11.93;8.43;;;11.00;99.90;;;;;;4976192;28;20054;-88
2021/04/22 01:22:01;;;;;;;14.40;8.60;;;11.00;99.90;;;;;;4976275;28;20019;-88
2021/04/22 01:24:27;;;;;;;12.25;8.75;;;10.90;99.90;;;;;;4994583;28;20026;-88
2021/04/22 01:26:53;;;;;;;13.23;8.40;;;10.90;99.90;;;;;;4976355;28;20049;-88
2021/04/22 01:29:18;;;;;;;14.30;8.43;;;11.00;99.90;;;;;;4975664;28;20062;-88
2021/04/22 01:31:44;;;;;;;13.23;8.43;;;10.90;99.90;;;;;;4975875;28;20033;-88
2021/04/22 01:34:11;;;;;;;13.77;8.85;;;10.90;99.90;;;;;;4975551;28;20049;-88
2021/04/22 01:36:40;;;;;;;14.25;9.05;;;11.10;99.90;;;;;;4974181;28;20091;-88
2021/04/22 01:39:08;;;;;;;13.88;9.13;;;10.80;99.90;;;;;;4965124;28;20400;-88
2021/04/22 01:41:35;;;;;;;15.20;9.40;;;10.90;99.90;;;;;;4959911;28;20058;-87
2021/04/22 01:44:01;;;;;;;15.25;9.65;;;10.80;99.90;;;;;;4956898;28;20369;-88
2021/04/22 01:46:27;;;;;;;14.35;9.38;;;10.80;99.90;;;;;;4959936;28;20506;-87
2021/04/22 01:48:53;;;;;;;13.00;9.10;;;11.10;99.90;;;;;;4959734;28;20054;-88
2021/04/22 01:51:21;;;;;;;14.73;9.32;;;10.80;99.90;;;;;;4975083;28;20464;-87
2021/04/22 01:53:47;;;;;;;17.42;10.23;;;10.80;99.90;;;;;;4959674;28;20109;-87
2021/04/22 01:56:12;;;;;;;17.13;9.32;;;10.70;99.90;;;;;;4959563;28;20070;-87
2021/04/22 01:58:38;;;;;;;14.90;9.93;;;10.80;99.90;;;;;;4959045;28;20499;-88
2021/04/22 02:01:04;;;;;;;14.73;10.13;;;10.80;99.90;;;;;;4974876;28;20019;-88
2021/04/22 02:03:32;;;;;;;14.00;8.82;;;10.70;99.90;;;;;;4974991;28;20023;-88
2021/04/22 02:05:58;;;;;;;12.52;8.73;;;10.70;99.90;;;;;;4969089;28;20054;-87
2021/04/22 02:08:24;;;;;;;16.38;9.45;;;10.70;99.90;;;;;;4959374;28;20113;-88
2021/04/22 02:10:50;;;;;;;14.07;9.25;;;10.70;99.90;;;;;;4973743;28;20053;-87
2021/04/22 02:13:18;;;;;;;14.75;9.68;;;10.70;99.90;;;;;;4995838;28;20034;-87
2021/04/22 02:15:45;;;;;;;13.32;8.73;;;10.60;99.90;;;;;;4978649;28;20061;-87
2021/04/22 02:18:10;;;;;;;15.27;9.02;;;10.60;99.90;;;;;;4971368;28;20361;-87
2021/04/22 02:20:36;;;;;;;13.68;8.95;;;10.50;99.90;;;;;;4976730;28;20109;-89
2021/04/22 02:23:04;;;;;;;17.17;11.43;;;10.70;99.90;;;;;;4958714;28;20023;-87
2021/04/22 02:25:30;;;;;;;20.77;12.30;;;10.90;99.90;;;;;;4959620;28;20412;-87
2021/04/22 02:27:57;;;;;;;20.27;13.00;;;10.50;99.90;;;;;;4958993;28;20026;-87
2021/04/22 02:30:27;;;;;;;21.50;14.50;;;10.50;99.90;;;;;;4958978;28;20106;-87
2021/04/22 02:32:53;;;;;;;20.17;13.82;;;10.50;99.90;;;;;;4976144;28;20498;-87
2021/04/22 02:35:26;;;;;;;25.13;15.82;;;10.40;99.90;;;;;;4958393;28;20050;-87
2021/04/22 02:37:52;;;;;;;24.15;15.30;;;10.30;99.90;;;;;;4976182;28;20027;-87
2021/04/22 02:40:21;;;;;;;24.65;16.52;;;10.50;99.90;;;;;;4958761;28;20030;-88
2021/04/22 02:42:46;;;;;;;29.23;17.52;;;10.30;99.90;;;;;;4958285;28;20023;-88
2021/04/22 02:45:16;;;;;;;24.67;17.33;;;10.20;99.90;;;;;;4958053;28;20361;-87
2021/04/22 02:47:42;;;;;;;26.17;17.30;;;10.20;99.90;;;;;;4960388;28;20510;-87
2021/04/22 02:50:11;;;;;;;25.90;17.83;;;10.10;99.90;;;;;;4969153;28;20059;-87
2021/04/22 02:52:37;;;;;;;27.15;18.10;;;10.10;99.90;;;;;;4960881;28;20034;-87
2021/04/22 02:55:04;;;;;;;27.42;18.50;;;10.30;99.90;;;;;;4978123;28;20031;-87
2021/04/22 02:57:30;;;;;;;28.00;18.42;;;10.00;99.90;;;;;;4959274;28;20058;-87
2021/04/22 02:59:56;;;;;;;31.17;19.02;;;9.90;99.90;;;;;;4976666;28;20035;-88
2021/04/22 03:02:22;;;;;;;30.83;20.40;;;10.00;99.90;;;;;;4974617;28;20349;-87
2021/04/22 03:04:47;;;;;;;29.25;19.23;;;10.00;99.90;;;;;;4968862;28;20026;-87
2021/04/22 03:07:13;;;;;;;26.33;19.00;;;10.00;99.90;;;;;;4958335;28;20113;-87
2021/04/22 03:09:39;;;;;;;29.27;18.10;;;9.90;99.90;;;;;;4957918;28;20482;-87
2021/04/22 03:12:06;;;;;;;24.83;17.00;;;9.90;99.90;;;;;;4975354;28;20061;-87
2021/04/22 03:14:31;;;;;;;27.17;18.45;;;10.00;99.90;;;;;;4975545;28;20054;-88
2021/04/22 03:16:57;;;;;;;25.25;17.73;;;9.90;99.90;;;;;;4975077;28;20113;-87
2021/04/22 03:19:22;;;;;;;26.00;17.25;;;10.00;99.90;;;;;;4954646;28;20453;-88
2021/04/22 03:21:49;;;;;;;28.67;18.30;;;10.00;99.90;;;;;;4954817;29;20035;-87
2021/04/22 03:24:15;;;;;;;27.90;17.55;;;10.20;99.90;;;;;;4946405;28;20073;-87
2021/04/22 03:26:40;;;;;;;25.35;16.70;;;10.20;99.90;;;;;;4974148;28;20026;-88
2021/04/22 03:29:06;;;;;;;24.60;16.90;;;9.80;99.90;;;;;;4995958;23;20049;-87
2021/04/22 03:31:32;;;;;;;24.58;17.15;;;9.90;99.90;;;;;;4994975;28;20390;-86
2021/04/22 03:33:57;;;;;;;30.67;17.08;;;10.00;99.90;;;;;;4979043;28;20018;-86
2021/04/22 03:36:23;;;;;;;29.10;17.13;;;9.80;99.90;;;;;;4969381;28;20090;-86
2021/04/22 03:38:49;;;;;;;24.90;15.95;;;9.80;99.90;;;;;;4968357;28;20023;-87
2021/04/22 03:41:15;;;;;;;23.70;16.45;;;9.80;99.90;;;;;;4978492;28;20031;-87
2021/04/22 03:43:40;;;;;;;25.80;16.35;;;9.90;99.90;;;;;;4961313;28;20062;-87
2021/04/22 03:46:06;;;;;;;26.13;16.02;;;9.70;99.90;;;;;;4959498;28;20030;-87
2021/04/22 03:48:32;;;;;;;26.08;16.35;;;9.60;99.90;;;;;;4960539;28;20057;-87
2021/04/22 03:50:57;;;;;;;23.50;15.50;;;9.60;99.90;;;;;;4958911;28;20149;-87
2021/04/22 03:53:23;;;;;;;25.33;16.85;;;9.60;99.90;;;;;;4958979;28;20039;-87
2021/04/22 03:55:48;;;;;;;25.52;16.48;;;9.80;99.90;;;;;;4987003;28;20049;-86
2021/04/22 03:58:14;;;;;;;23.80;15.32;;;9.40;99.90;;;;;;4959486;28;20344;-86
2021/04/22 04:00:40;;;;;;;24.02;15.98;;;9.40;99.90;;;;;;4959516;28;20388;-87
2021/04/22 04:03:05;;;;;;;25.30;15.77;;;9.40;99.90;;;;;;4977641;28;20018;-87
2021/04/22 04:05:31;;;;;;;24.75;15.82;;;9.40;99.90;;;;;;4996333;28;20030;-87
2021/04/22 04:07:57;;;;;;;22.08;15.45;;;9.30;99.90;;;;;;4978596;28;20031;-87
2021/04/22 04:10:23;;;;;;;22.25;14.90;;;9.20;99.90;;;;;;4994775;28;20562;-86
2021/04/22 04:12:48;;;;;;;25.13;15.40;;;9.30;99.90;;;;;;4959060;28;20048;-86
2021/04/22 04:15:15;;;;;;;24.77;15.85;;;9.40;99.90;;;;;;4958657;28;20670;-86
2021/04/22 04:17:41;;;;;;;24.92;15.82;;;9.10;99.90;;;;;;4957927;28;20030;-87
2021/04/22 04:20:09;;;;;;;21.17;14.82;;;9.10;99.90;;;;;;4975388;28;20030;-86
2021/04/22 04:22:35;;;;;;;22.15;15.02;;;9.10;99.90;;;;;;4958110;28;20380;-86
2021/04/22 04:25:07;;;;;;;25.02;16.45;;;9.10;99.90;;;;;;4960513;28;20027;-87
2021/04/22 04:27:33;;;;;;;26.80;15.52;;;9.00;99.90;;;;;;4967385;28;20034;-86
2021/04/22 04:29:59;;;;;;;26.90;15.77;;;9.00;99.90;;;;;;4995094;28;20192;-87
2021/04/22 04:32:25;;;;;;;25.65;15.73;;;8.90;99.90;;;;;;4978205;28;20027;-86
2021/04/22 04:34:51;;;;;;;25.23;16.02;;;8.90;99.90;;;;;;4978918;28;20026;-87
2021/04/22 04:37:16;;;;;;;25.40;17.27;;;8.70;99.90;;;;;;4973736;28;20826;-87
2021/04/22 04:39:42;;;;;;;24.58;15.27;;;8.80;99.90;;;;;;4969992;28;20098;-89
2021/04/22 04:42:08;;;;;;;26.52;16.48;;;8.80;99.90;;;;;;4976705;28;20086;-87
2021/04/22 04:44:34;;;;;;;24.90;15.90;;;8.80;99.90;;;;;;4976662;28;20026;-86
2021/04/22 04:47:00;;;;;;;25.25;15.15;;;8.80;99.90;;;;;;4976404;28;20042;-87
2021/04/22 04:49:26;;;;;;;26.73;15.65;;;8.80;99.90;;;;;;4976171;28;20384;-86
2021/04/22 04:51:51;;;;;;;27.67;15.25;;;8.80;99.90;;;;;;4976167;28;20037;-86
2021/04/22 04:54:17;;;;;;;25.25;15.88;;;8.80;99.90;;;;;;4976003;28;20037;-86
2021/04/22 04:56:43;;;;;;;27.50;17.02;;;8.80;99.90;;;;;;4976204;28;20034;-86
2021/04/22 04:59:09;;;;;;;26.83;16.10;;;8.80;99.90;;;;;;4993498;28;20034;-86
2021/04/22 05:01:34;;;;;;;26.30;16.33;;;8.70;99.90;;;;;;4976037;28;20018;-86
2021/04/22 05:04:00;;;;;;;25.95;16.42;;;8.70;99.90;;;;;;4976215;28;20427;-86
2021/04/22 05:06:26;;;;;;;26.23;16.05;;;8.80;99.90;;;;;;4976124;28;20030;-89
2021/04/22 05:08:51;;;;;;;24.10;15.90;;;8.70;99.90;;;;;;4993365;28;20108;-86
2021/04/22 05:11:17;;;;;;;25.98;16.40;;;8.80;99.90;;;;;;4975281;28;20447;-86
2021/04/22 05:13:43;;;;;;;25.95;15.43;;;8.70;99.90;;;;;;4975464;28;20491;-86
2021/04/22 05:16:09;;;;;;;26.80;16.15;;;8.80;99.90;;;;;;4970710;28;20498;-87
2021/04/22 05:18:34;;;;;;;26.95;15.50;;;8.80;99.90;;;;;;4979051;28;20162;-87
2021/04/22 05:21:00;;;;;;;23.58;15.57;;;8.80;99.90;;;;;;4979579;28;20086;-87
2021/04/22 05:23:26;;;;;;;23.90;15.73;;;8.80;99.90;;;;;;4996916;28;20625;-87
2021/04/22 05:25:54;;;;;;;27.73;16.35;;;8.90;99.90;;;;;;4979823;28;20522;-87
2021/04/22 05:28:21;;;;;;;30.10;16.75;;;8.90;99.90;;;;;;4979253;28;20446;-86
2021/04/22 05:30:47;;;;;;;25.90;16.13;;;9.00;99.90;;;;;;4967156;28;20853;-87
2021/04/22 05:33:12;;;;;;;23.90;15.07;;;9.00;99.90;;;;;;4970060;28;20015;-86
2021/04/22 05:35:39;;;;;;;24.65;15.60;;;9.10;99.90;;;;;;4996602;28;20053;-88
2021/04/22 05:38:05;;;;;;;25.38;15.60;;;9.20;99.90;;;;;;4979546;28;20059;-88
2021/04/22 05:40:31;;;;;;;31.02;16.52;;;9.20;99.90;;;;;;4978602;28;20018;-89
2021/04/22 05:42:57;;;;;;;26.15;15.35;;;9.30;99.90;;;;;;4978490;28;20750;-88
2021/04/22 05:45:23;;;;;;;24.85;15.65;;;9.20;99.90;;;;;;4977624;28;20551;-88
2021/04/22 05:47:49;;;;;;;22.13;15.00;;;9.60;99.90;;;;;;4977801;28;20121;-88
2021/04/22 05:50:16;;;;;;;25.13;15.27;;;9.40;99.90;;;;;;4979174;28;20061;-87
2021/04/22 05:52:42;;;;;;;25.75;15.35;;;9.40;99.90;;;;;;4979205;28;20185;-88
2021/04/22 05:55:09;;;;;;;25.88;15.63;;;9.60;99.90;;;;;;4980796;28;20027;-88
2021/04/22 05:57:35;;;;;;;29.17;16.20;;;9.50;99.90;;;;;;4970903;28;20023;-88
2021/04/22 06:00:02;;;;;;;24.48;15.75;;;9.50;99.90;;;;;;4982547;28;20022;-89
2021/04/22 06:02:28;;;;;;;22.48;14.20;;;9.50;99.90;;;;;;4998193;28;20058;-89
2021/04/22 06:04:53;;;;;;;24.17;15.63;;;9.50;99.90;;;;;;4984460;28;20148;-88
2021/04/22 06:07:19;;;;;;;27.42;15.55;;;9.50;99.90;;;;;;4985348;28;20042;-88
2021/04/22 06:09:45;;;;;;;26.15;15.40;;;9.50;99.90;;;;;;4978658;28;20077;-87
2021/04/22 06:12:11;;;;;;;26.27;14.43;;;9.50;99.90;;;;;;4980244;28;20041;-88
2021/04/22 06:14:38;;;;;;;23.10;15.05;;;9.50;99.90;;;;;;4979684;28;20035;-88
2021/04/22 06:17:04;;;;;;;25.13;15.20;;;9.50;99.90;;;;;;4977359;28;20034;-88
2021/04/22 06:19:29;;;;;;;20.98;14.35;;;9.50;99.90;;;;;;4980110;28;20029;-87
2021/04/22 06:21:55;;;;;;;24.05;15.40;;;9.70;99.90;;;;;;5002116;28;20029;-88
2021/04/22 06:24:21;;;;;;;26.55;16.10;;;9.60;99.90;;;;;;4978697;28;20093;-88
2021/04/22 06:26:48;;;;;;;24.70;15.73;;;9.50;99.90;;;;;;4981771;28;20038;-89
2021/04/22 06:29:14;;;;;;;25.27;15.07;;;9.50;99.90;;;;;;4990454;28;20069;-88
2021/04/22 06:31:40;;;;;;;25.95;15.00;;;9.50;99.90;;;;;;4998533;28;20499;-88
2021/04/22 06:34:06;;;;;;;24.52;15.15;;;9.80;99.90;;;;;;4982234;28;20499;-87
2021/04/22 06:36:34;;;;;;;24.08;15.10;;;9.50;99.90;;;;;;4984752;28;20095;-87
2021/04/22 06:39:01;;;;;;;24.02;15.02;;;9.40;99.90;;;;;;4983491;28;20034;-88
2021/04/22 06:41:29;;;;;;;22.65;14.57;;;9.40;99.90;;;;;;4979201;28;20509;-88
2021/04/22 06:43:55;;;;;;;24.63;14.95;;;9.40;99.90;;;;;;4982915;28;20026;-88
2021/04/22 06:46:20;;;;;;;25.45;15.93;;;9.40;99.90;;;;;;4988731;28;20482;-88
2021/04/22 06:48:47;;;;;;;25.80;15.82;;;9.40;99.90;;;;;;4994946;28;20508;-88
2021/04/22 06:51:18;;;;;;;22.75;13.90;;;9.30;99.90;;;;;;4994212;28;20021;-88
2021/04/22 06:53:44;;;;;;;25.27;15.55;;;9.50;99.90;;;;;;4985326;28;20512;-89
2021/04/22 06:56:10;;;;;;;26.17;14.55;;;9.40;99.90;;;;;;4990304;28;20030;-88
2021/04/22 06:58:42;;;;;;;24.80;13.93;;;9.40;99.90;;;;;;4981831;28;20402;-90
2021/04/22 07:01:08;;;;;;;;;;;9.30;99.90;;;;;;4982961;28;20567;-88
2021/04/22 07:03:36;;;;;;;24.52;14.05;;;9.30;99.90;;;;;;4997142;28;19941;-88
2021/04/22 07:06:02;;;;;;;26.23;14.50;;;9.30;99.90;;;;;;4980349;28;20439;-87
2021/04/22 07:08:28;;;;;;;28.02;15.35;;;9.60;99.90;;;;;;4986872;28;20037;-86
2021/04/22 07:10:54;;;;;;;28.33;14.65;;;9.40;99.90;;;;;;4972716;28;20424;-84
2021/04/22 07:13:20;;;;;;;25.13;13.70;;;9.50;99.90;;;;;;4973206;28;20081;-87
2021/04/22 07:15:45;;;;;;;21.52;13.02;;;10.00;99.90;;;;;;4987932;28;20036;-85
2021/04/22 07:18:11;;;;;;;26.45;14.55;;;9.60;99.90;;;;;;4996722;28;20022;-85
2021/04/22 07:20:39;;;;;;;23.45;14.48;;;9.70;99.90;;;;;;4970239;28;20034;-86
2021/04/22 07:23:05;;;;;;;24.40;14.48;;;9.80;99.90;;;;;;4974047;28;20022;-86
2021/04/22 07:25:33;;;;;;;26.58;13.85;;;9.80;99.90;;;;;;4984968;28;20042;-89
2021/04/22 07:28:07;;;;;;;23.83;14.73;;;10.00;99.90;;;;;;4980159;28;20157;-87
2021/04/22 07:30:36;;;;;;;22.38;14.18;;;10.00;99.90;;;;;;4997351;28;20044;-86
2021/04/22 07:33:03;;;;;;;23.63;14.13;;;10.10;99.90;;;;;;4991877;28;20030;-87
2021/04/22 07:35:28;;;;;;;24.15;13.48;;;10.20;99.90;;;;;;4979912;28;20520;-87
2021/04/22 07:37:55;;;;;;;29.08;14.48;;;10.30;99.90;;;;;;4992199;28;20034;-87
2021/04/22 07:40:35;;;;;;;28.25;15.90;;;10.20;99.90;;;;;;4981365;28;20033;-87
2021/04/22 07:43:01;;;;;;;25.40;15.10;;;10.20;99.90;;;;;;4974646;28;20069;-87
2021/04/22 07:45:33;;;;;;;28.92;14.10;;;10.20;99.90;;;;;;4988126;28;20030;-87
2021/04/22 07:48:01;;;;;;;23.17;13.90;;;10.00;99.90;;;;;;4974313;28;20032;-87
2021/04/22 07:50:29;;;;;;;25.20;13.25;;;9.90;99.90;;;;;;4963601;28;20038;-87
2021/04/22 07:52:55;;;;;;;26.00;13.88;;;9.90;99.90;;;;;;4978199;28;20029;-86
2021/04/22 07:55:27;;;;;;;22.77;13.05;;;9.80;99.90;;;;;;4976964;28;20026;-88
2021/04/22 07:57:54;;;;;;;23.25;12.68;;;9.80;99.90;;;;;;4969071;28;20037;-86
2021/04/22 08:00:21;;;;;;;23.10;12.73;;;9.90;99.90;;;;;;4981603;28;20062;-87
2021/04/22 08:02:48;;;;;;;21.50;12.95;;;10.00;99.90;;;;;;4972621;28;20042;-89
2021/04/22 08:05:16;;;;;;;20.80;12.70;;;10.10;99.90;;;;;;4987289;28;20127;-85
2021/04/22 08:07:42;;;;;;;21.70;12.93;;;10.10;99.90;;;;;;4985886;28;20516;-87
2021/04/22 08:10:15;;;;;;;19.52;11.52;;;10.20;99.90;;;;;;4983161;28;20102;-87
2021/04/22 08:12:41;;;;;;;24.38;12.48;;;10.10;99.90;;;;;;4972751;28;20034;-86
2021/04/22 08:15:09;;;;;;;20.00;11.43;;;10.10;99.90;;;;;;4972665;28;20391;-85
2021/04/22 08:17:36;;;;;;;20.75;11.63;;;10.10;99.90;;;;;;4978681;28;20365;-84
2021/04/22 08:20:06;;;;;;;18.73;11.20;;;10.10;99.90;;;;;;4997196;28;20110;-84
2021/04/22 08:22:33;;;;;;;18.88;11.35;;;10.10;99.90;;;;;;4978917;28;20085;-84
2021/04/22 08:24:59;;;;;;;22.05;11.93;;;10.30;99.90;;;;;;4979265;28;20058;-84
2021/04/22 08:27:25;;;;;;;21.08;11.40;;;10.30;99.90;;;;;;4982822;28;20033;-86
2021/04/22 08:29:52;;;;;;;20.00;11.05;;;10.40;99.90;;;;;;4997037;28;20051;-84
2021/04/22 08:32:17;;;;;;;23.92;12.27;;;10.50;99.90;;;;;;4980498;28;20060;-84
2021/04/22 08:34:43;;;;;;;16.42;10.88;;;10.60;99.90;;;;;;5001930;28;20031;-83
2021/04/22 08:37:09;;;;;;;20.85;11.65;;;10.70;99.90;;;;;;4981673;28;20026;-85
2021/04/22 08:39:34;;;;;;;21.23;11.68;;;10.70;99.90;;;;;;4978055;28;20038;-85
2021/04/22 08:42:02;;;;;;;21.20;11.25;;;10.80;99.90;;;;;;4973876;28;20042;-85
2021/04/22 08:44:27;;;;;;;17.58;11.68;;;10.90;99.90;;;;;;4979793;28;20482;-86
2021/04/22 08:46:54;;;;;;;18.10;11.48;;;11.00;99.90;;;;;;4981738;28;20027;-86
2021/04/22 08:49:20;;;;;;;20.25;10.45;;;11.00;99.90;;;;;;4996916;28;20471;-84
2021/04/22 08:51:46;;;;;;;17.63;10.25;;;11.10;99.90;;;;;;4983836;28;20023;-85
2021/04/22 08:54:14;;;;;;;22.33;11.23;;;11.40;99.90;;;;;;4981705;28;20655;-84
2021/04/22 08:56:40;;;;;;;18.92;10.88;;;11.50;99.90;;;;;;4985912;28;20061;-85
2021/04/22 08:59:06;;;;;;;20.08;10.95;;;11.90;99.90;;;;;;4999939;28;20072;-84
2021/04/22 09:01:32;;;;;;;18.33;10.27;;;11.60;99.90;;;;;;4984124;28;20105;-85
2021/04/22 09:04:00;;;;;;;17.95;10.20;;;12.00;99.90;;;;;;5001612;28;20023;-84
2021/04/22 09:06:28;;;;;;;17.77;10.23;;;12.10;99.90;;;;;;4983310;28;20026;-85
2021/04/22 09:08:55;;;;;;;19.23;10.90;;;12.30;99.90;;;;;;4981947;28;20411;-85
2021/04/22 09:11:24;;;;;;;19.20;10.52;;;12.30;99.90;;;;;;4985151;28;20526;-84
2021/04/22 09:13:51;;;;;;;19.77;9.50;;;12.40;99.90;;;;;;4987578;28;20398;-86
2021/04/22 09:16:22;;;;;;;18.10;9.35;;;12.30;99.90;;;;;;4983765;28;20031;-86
2021/04/22 09:18:53;;;;;;;16.25;9.20;;;12.20;99.90;;;;;;4997584;28;20026;-87
2021/04/22 09:21:31;;;;;;;16.83;8.82;;;12.00;99.90;;;;;;4979425;28;20113;-88
2021/04/22 09:24:13;;;;;;;16.73;9.38;;;11.90;99.90;;;;;;4984655;28;20177;-87
2021/04/22 09:27:04;;;;;;;15.23;9.52;;;11.90;99.90;;;;;;5001539;28;20022;-86
2021/04/22 09:29:45;;;;;;;16.27;9.43;;;12.00;99.90;;;;;;4983177;28;20169;-87
2021/04/22 09:32:16;;;;;;;18.63;9.35;;;12.00;99.90;;;;;;4981176;28;20038;-87
2021/04/22 09:34:48;;;;;;;14.38;9.20;;;12.20;99.90;;;;;;4981796;28;20046;-87
2021/04/22 09:37:14;;;;;;;18.95;8.38;;;12.30;99.70;;;;;;4981958;28;20030;-86
2021/04/22 09:39:40;;;;;;;17.10;8.02;;;12.50;99.90;;;;;;4980847;28;20069;-86
2021/04/22 09:42:10;;;;;;;14.27;8.60;;;12.80;98.90;;;;;;4998580;28;20093;-86
2021/04/22 09:44:38;;;;;;;16.58;9.10;;;12.80;98.40;;;;;;4975153;28;20035;-87
2021/04/22 09:47:11;;;;;;;17.58;9.07;;;13.10;99.00;;;;;;4988840;28;20030;-88
2021/04/22 09:49:55;;;;;;;15.48;8.73;;;13.30;97.90;;;;;;4992909;28;20053;-84
2021/04/22 09:52:35;;;;;;;15.93;8.40;;;12.90;96.30;;;;;;4993132;28;20010;-86
2021/04/22 09:55:01;;;;;;;14.98;8.43;;;13.00;96.40;;;;;;5002263;28;20026;-85
2021/04/22 09:57:38;;;;;;;20.52;8.23;;;13.20;95.90;;;;;;4992499;28;20034;-84
2021/04/22 10:00:08;;;;;;;20.38;8.25;;;13.20;95.50;;;;;;4995175;28;20041;-86
2021/04/22 10:02:55;;;;;;;15.20;8.05;;;13.50;95.40;;;;;;5001303;28;20029;-85
2021/04/22 10:05:34;;;;;;;15.32;7.95;;;13.60;93.80;;;;;;4989651;28;20027;-87
2021/04/22 10:08:15;;;;;;;15.95;7.80;;;13.50;92.80;;;;;;4989037;28;20053;-87
2021/04/22 10:11:01;;;;;;;17.80;7.68;;;13.50;92.70;;;;;;4994881;28;20034;-86
2021/04/22 10:13:41;;;;;;;12.00;7.22;;;13.50;92.40;;;;;;4991580;28;20587;-86
2021/04/22 10:16:07;;;;;;;11.75;6.25;;;13.70;91.10;;;;;;5004757;28;20038;-86
2021/04/22 10:18:46;;;;;;;13.10;6.80;;;13.80;90.10;;;;;;4994474;28;20022;-87
2021/04/22 10:21:15;;;;;;;18.27;6.45;;;13.90;89.80;;;;;;4994864;28;20046;-89
2021/04/22 10:23:42;;;;;;;13.18;6.15;;;14.10;85.50;;;;;;5006966;28;20027;-86
2021/04/22 10:26:21;;;;;;;13.50;5.55;;;13.90;84.40;;;;;;4999797;28;20061;-85
2021/04/22 10:28:47;;;;;;;16.90;5.88;;;13.70;83.40;;;;;;4987418;28;20052;-86
2021/04/22 10:31:13;;;;;;;11.80;4.50;;;13.90;84.10;;;;;;5013343;28;20045;-85
2021/04/22 10:33:39;;;;;;;13.00;5.35;;;14.00;78.00;;;;;;4987045;28;20042;-86
2021/04/22 10:36:05;;;;;;;11.07;4.82;;;14.10;76.10;;;;;;4983344;28;20458;-86
2021/04/22 10:38:32;;;;;;;9.43;4.20;;;14.30;74.70;;;;;;4983978;28;20045;-86
2021/04/22 10:40:58;;;;;;;8.45;4.43;;;14.50;73.20;;;;;;4985749;28;20068;-87
2021/04/22 10:43:26;;;;;;;10.32;4.78;;;14.80;71.00;;;;;;4976807;28;21097;-87
2021/04/22 10:45:54;;;;;;;10.40;5.43;;;14.80;69.00;;;;;;4986428;28;20077;-87
2021/04/22 10:48:20;;;;;;;9.90;4.63;;;14.60;67.60;;;;;;4985755;28;20034;-86
2021/04/22 10:50:48;;;;;;;9.20;4.00;;;14.50;69.00;;;;;;4995668;23;20382;-83
2021/04/22 10:53:20;;;;;;;9.68;4.40;;;14.70;64.50;;;;;;5019543;28;20129;-84
2021/04/22 10:55:48;;;;;;;13.35;4.80;;;14.80;63.80;;;;;;5018687;28;20017;-84
2021/04/22 10:58:18;;;;;;;11.52;3.90;;;14.80;63.80;;;;;;5015065;28;20040;-84
2021/04/22 11:01:03;;;;;;;10.13;4.20;;;14.90;63.00;;;;;;5040873;28;20381;-83
2021/04/22 11:03:30;;;;;;;10.00;3.70;;;14.90;61.30;;;;;;5016703;28;20025;-84
2021/04/22 11:06:04;;;;;;;9.02;3.42;;;15.00;60.50;;;;;;5015142;28;20500;-84
2021/04/22 11:08:31;;;;;;;8.85;3.15;;;15.10;58.40;;;;;;5023448;28;20041;-84
2021/04/22 11:10:58;;;;;;;8.48;3.10;;;15.40;57.50;;;;;;5020094;28;20060;-84
2021/04/22 11:13:30;;;;;;;6.47;2.92;;;15.40;54.70;;;;;;5021191;28;20037;-84
2021/04/22 11:15:55;;;;;;;7.65;2.70;;;15.40;54.80;;;;;;5012980;28;20029;-85
2021/04/22 11:18:33;;;;;;;7.18;2.88;;;15.40;54.50;;;;;;5013354;28;20438;-84
2021/04/22 11:20:58;;;;;;;8.32;2.95;;;15.50;54.20;;;;;;5013066;28;20029;-84
2021/04/22 11:23:24;;;;;;;7.90;3.05;;;15.30;53.50;;;;;;5013047;28;20083;-84
2021/04/22 11:25:53;;;;;;;9.50;2.80;;;15.50;53.40;;;;;;5012949;28;20112;-84
2021/04/22 11:28:33;;;;;;;7.70;3.10;;;15.10;54.40;;;;;;5032929;28;20018;-84
2021/04/22 11:31:26;;;;;;;8.88;2.95;;;15.60;52.10;;;;;;5023055;28;20067;-84
2021/04/22 11:34:06;;;;;;;7.68;2.50;;;15.80;51.90;;;;;;5022498;28;20366;-84
2021/04/22 11:36:32;;;;;;;7.05;2.50;;;15.90;50.00;;;;;;5017902;28;20021;-84
2021/04/22 11:39:06;;;;;;;7.30;3.00;;;15.80;47.90;;;;;;5027278;28;20144;-85
2021/04/22 11:41:34;;;;;;;8.48;2.55;;;15.90;47.50;;;;;;5026227;28;20032;-86
2021/04/22 11:44:09;;;;;;;6.22;2.53;;;16.00;49.50;;;;;;5025880;28;20020;-85
2021/04/22 11:46:37;;;;;;;8.70;3.33;;;16.30;51.10;;;;;;5046636;28;20036;-83
2021/04/22 11:49:04;;;;;;;8.90;3.25;;;16.60;51.10;;;;;;5013897;28;20021;-84
2021/04/22 11:51:36;;;;;;;9.02;2.90;;;16.30;48.80;;;;;;5041048;28;20029;-85
2021/04/22 11:54:02;;;;;;;8.73;2.80;;;16.50;48.20;;;;;;5015007;28;20136;-86
2021/04/22 11:56:30;;;;;;;6.50;2.30;;;16.60;49.60;;;;;;5039526;28;20029;-84
2021/04/22 11:58:55;;;;;;;7.95;2.13;;;17.10;46.00;;;;;;5022246;28;20041;-85
2021/04/22 12:01:21;;;;;;;7.47;2.15;;;17.00;45.40;;;;;;5016336;28;20048;-85
2021/04/22 12:03:48;;;;;;;5.78;2.35;;;17.20;46.10;;;;;;5025341;28;20440;-85
2021/04/22 12:06:16;;;;;;;7.85;2.30;;;17.60;44.60;;;;;;5040802;28;20078;-84
2021/04/22 12:08:49;;;;;;;7.72;2.70;;;17.40;46.30;;;;;;5032724;28;20028;-85
2021/04/22 12:11:21;;;;;;;8.13;3.05;;;17.50;46.60;;;;;;5028096;28;20033;-85
2021/04/22 12:13:48;;;;;;;7.50;2.72;;;17.50;46.80;;;;;;5013942;28;20112;-85
2021/04/22 12:16:15;;;;;;;7.63;2.80;;;17.60;45.50;;;;;;5038466;28;20163;-85
2021/04/22 12:18:43;;;;;;;6.60;2.60;;;17.70;44.20;;;;;;5020050;28;20393;-84
2021/04/22 12:21:11;;;;;;;7.30;2.58;;;17.70;45.50;;;;;;5046053;28;20021;-84
2021/04/22 12:23:39;;;;;;;8.68;3.30;;;17.90;44.90;;;;;;5033549;28;20029;-85
2021/04/22 12:26:26;;;;;;;6.05;2.45;;;18.00;44.90;;;;;;5056766;28;20032;-84
2021/04/22 12:28:54;;;;;;;5.45;2.35;;;18.00;44.40;;;;;;5034269;28;20022;-85
2021/04/22 12:31:37;;;;;;;10.05;2.42;;;18.00;43.70;;;;;;5036443;28;20032;-85
2021/04/22 12:34:20;;;;;;;7.43;2.60;;;18.10;43.90;;;;;;5041732;28;20044;-85
2021/04/22 12:37:08;;;;;;;7.93;2.47;;;18.30;43.30;;;;;;5029844;28;20696;-85
2021/04/22 12:39:52;;;;;;;7.25;2.65;;;18.30;42.50;;;;;;5018447;28;20108;-85